Time;durP1;ratioP1;P1;durP2;ratioP2;P2;SDS_P1;SDS_P2;PMS_P1;PMS_P2;Temp;Humidity;BMP_temperature;BMP_pressure;BME280_temperature;BME280_humidity;BME280_pressure;Samples;Min_cycle;Max_cycle;Signal;HPM_P1;HPM_P2
2022/01/15 00:01:32;;;;;;;28.58;23.90;;;;;;;;;;5022295;28;20030;-69
2022/01/15 00:03:58;;;;;;;38.45;25.77;;;;;;;;;;5022763;28;20553;-70
2022/01/15 00:06:23;;;;;;;35.30;25.38;;;;;;;;;;5022029;28;20414;-69
2022/01/15 00:08:49;;;;;;;31.83;25.38;;;;;;;;;;5021311;28;20030;-69
2022/01/15 00:11:14;;;;;;;36.72;26.77;;;;;;;;;;5025610;28;20083;-70
2022/01/15 00:13:43;;;;;;;37.63;26.70;;;;;;;;;;5026886;28;20124;-69
2022/01/15 00:16:25;;;;;;;28.83;24.65;;;;;;;;;;5019330;28;20113;-69
2022/01/15 00:21:26;;;;;;;31.88;25.77;;;;;;;;;;5023865;28;20038;-70
2022/01/15 00:23:52;;;;;;;39.28;24.85;;;;;;;;;;5022850;28;20500;-69
2022/01/15 00:26:18;;;;;;;38.95;26.98;;;;;;;;;;5022414;28;20033;-69
2022/01/15 00:28:44;;;;;;;28.42;22.70;;;;;;;;;;5024556;28;20125;-69
2022/01/15 00:31:09;;;;;;;33.70;26.20;;;;;;;;;;5009663;28;20041;-69
2022/01/15 00:33:35;;;;;;;31.02;25.67;;;;;;;;;;5020134;28;20030;-68
2022/01/15 00:36:01;;;;;;;39.83;26.85;;;;;;;;;;5022332;28;20041;-68
2022/01/15 00:38:26;;;;;;;32.75;26.05;;;;;;;;;;5021770;28;20037;-69
2022/01/15 00:40:52;;;;;;;37.65;25.20;;;;;;;;;;5021084;28;20124;-70
2022/01/15 00:43:18;;;;;;;32.72;25.23;;;;;;;;;;5020481;28;20499;-69
2022/01/15 00:45:45;;;;;;;32.00;25.30;;;;;;;;;;5021936;28;20038;-70
2022/01/15 00:48:10;;;;;;;30.65;24.17;;;;;;;;;;5025218;28;20048;-70
2022/01/15 00:50:36;;;;;;;30.88;23.35;;;;;;;;;;5022557;28;20155;-69
2022/01/15 00:53:02;;;;;;;35.22;24.13;;;;;;;;;;5015749;28;20069;-69
2022/01/15 00:55:27;;;;;;;31.45;24.50;;;;;;;;;;5021459;28;20061;-69
2022/01/15 00:57:53;;;;;;;34.83;25.92;;;;;;;;;;5023515;28;20044;-69
2022/01/15 01:00:22;;;;;;;31.20;25.85;;;;;;;;;;5020579;28;20061;-69
2022/01/15 01:02:48;;;;;;;32.33;24.60;;;;;;;;;;5016377;28;20091;-69
2022/01/15 01:05:15;;;;;;;33.22;26.23;;;;;;;;;;5022630;28;20088;-69
2022/01/15 01:07:40;;;;;;;34.78;25.52;;;;;;;;;;5021854;28;20069;-69
2022/01/15 01:10:40;;;;;;;68.93;34.08;;;;;;;;;;5019244;28;20531;-69
2022/01/15 01:23:25;;;;;;;36.25;25.70;;;;;;;;;;5016670;28;20040;-69
2022/01/15 01:25:56;;;;;;;31.77;25.13;;;;;;;;;;5015586;28;20073;-70
2022/01/15 01:30:54;;;;;;;36.25;24.33;;;;;;;;;;5020218;28;20045;-68
2022/01/15 01:35:50;;;;;;;33.17;24.40;;;;;;;;;;5026191;28;20510;-70
2022/01/15 01:38:26;;;;;;;34.05;24.60;;;;;;;;;;5020873;28;20048;-69
2022/01/15 01:40:52;;;;;;;36.15;24.73;;;;;;;;;;5020470;28;20493;-69
2022/01/15 01:45:51;;;;;;;29.33;22.63;;;;;;;;;;5025406;28;20037;-69
2022/01/15 01:48:17;;;;;;;28.92;23.55;;;;;;;;;;5027337;28;20079;-68
2022/01/15 01:50:43;;;;;;;30.80;22.88;;;;;;;;;;5019194;28;20061;-69
2022/01/15 01:53:09;;;;;;;28.98;23.35;;;;;;;;;;5021467;28;20066;-69
2022/01/15 01:55:36;;;;;;;26.20;22.98;;;;;;;;;;5022081;28;20067;-69
2022/01/15 01:58:01;;;;;;;34.20;24.00;;;;;;;;;;5021491;28;20397;-69
2022/01/15 02:00:29;;;;;;;30.95;24.98;;;;;;;;;;5017076;28;20052;-69
2022/01/15 02:02:56;;;;;;;32.53;25.20;;;;;;;;;;5019611;28;20577;-69
2022/01/15 02:05:22;;;;;;;34.78;26.77;;;;;;;;;;5021109;28;20121;-70
2022/01/15 02:07:49;;;;;;;29.98;25.65;;;;;;;;;;5014695;28;20466;-69
2022/01/15 02:10:18;;;;;;;29.25;23.55;;;;;;;;;;5019986;28;20498;-68
2022/01/15 02:12:45;;;;;;;30.35;24.30;;;;;;;;;;5019892;28;20136;-69
2022/01/15 02:15:14;;;;;;;36.42;25.80;;;;;;;;;;5017673;28;20041;-68
2022/01/15 02:17:41;;;;;;;34.65;25.10;;;;;;;;;;5018890;28;20042;-69
2022/01/15 02:20:33;;;;;;;41.97;25.98;;;;;;;;;;5027515;28;20041;-68
2022/01/15 02:25:57;;;;;;;35.65;26.27;;;;;;;;;;5015920;28;20133;-68
2022/01/15 02:28:25;;;;;;;28.33;25.17;;;;;;;;;;5026642;28;20038;-68
2022/01/15 02:30:55;;;;;;;36.03;26.25;;;;;;;;;;5026559;28;20098;-68
2022/01/15 02:33:21;;;;;;;29.77;24.30;;;;;;;;;;5018254;28;20729;-68
2022/01/15 02:35:48;;;;;;;31.65;25.55;;;;;;;;;;5023276;28;20433;-68
2022/01/15 02:38:14;;;;;;;30.23;24.40;;;;;;;;;;5023923;28;20182;-67
2022/01/15 02:40:40;;;;;;;35.60;27.02;;;;;;;;;;5019544;28;20100;-70
2022/01/15 02:43:12;;;;;;;34.35;27.90;;;;;;;;;;5018539;28;20046;-68
2022/01/15 02:45:41;;;;;;;33.90;26.60;;;;;;;;;;5025117;28;20064;-68
2022/01/15 02:48:11;;;;;;;40.75;26.70;;;;;;;;;;5008693;28;20045;-70
2022/01/15 02:50:36;;;;;;;;;;;;;;;;;;5017057;28;20038;-70
2022/01/15 02:53:03;;;;;;;29.85;24.95;;;;;;;;;;5018237;28;19927;-69
2022/01/15 02:55:29;;;;;;;33.35;25.10;;;;;;;;;;5008350;28;20081;-70
2022/01/15 02:57:55;;;;;;;35.80;25.45;;;;;;;;;;5022116;28;20088;-68
2022/01/15 03:00:25;;;;;;;37.28;28.27;;;;;;;;;;5015459;28;20033;-69
2022/01/15 03:02:51;;;;;;;39.05;28.65;;;;;;;;;;5023085;28;20493;-70
2022/01/15 03:05:17;;;;;;;57.45;37.40;;;;;;;;;;5027691;28;20068;-69
2022/01/15 03:07:43;;;;;;;54.10;34.70;;;;;;;;;;5016226;28;20077;-69
2022/01/15 03:10:09;;;;;;;49.90;31.08;;;;;;;;;;5018437;28;20045;-69
2022/01/15 03:12:36;;;;;;;46.20;29.08;;;;;;;;;;5025548;28;20164;-70
2022/01/15 03:15:05;;;;;;;45.50;31.02;;;;;;;;;;5002229;28;20448;-69
2022/01/15 03:17:30;;;;;;;45.50;28.85;;;;;;;;;;5012816;28;20088;-69
2022/01/15 03:19:56;;;;;;;48.92;28.70;;;;;;;;;;5022296;28;20452;-70
2022/01/15 03:22:22;;;;;;;39.85;26.88;;;;;;;;;;5018373;28;20385;-68
2022/01/15 03:24:49;;;;;;;41.75;27.50;;;;;;;;;;5014040;28;20492;-70
2022/01/15 03:27:14;;;;;;;37.35;25.92;;;;;;;;;;5017528;28;20435;-68
2022/01/15 03:29:40;;;;;;;40.00;28.52;;;;;;;;;;5029877;28;20615;-67
2022/01/15 03:32:07;;;;;;;43.75;27.80;;;;;;;;;;5029207;28;20183;-70
2022/01/15 03:34:32;;;;;;;44.33;32.10;;;;;;;;;;5025439;28;20449;-68
2022/01/15 03:36:58;;;;;;;59.28;36.47;;;;;;;;;;5016077;28;20068;-70
2022/01/15 03:39:24;;;;;;;50.22;31.70;;;;;;;;;;5026542;28;20084;-70
2022/01/15 03:41:49;;;;;;;38.22;27.98;;;;;;;;;;5025029;28;20125;-70
2022/01/15 03:44:15;;;;;;;47.30;30.38;;;;;;;;;;5022875;28;20025;-70
2022/01/15 03:46:41;;;;;;;42.53;29.75;;;;;;;;;;5030156;28;20488;-70
2022/01/15 03:49:06;;;;;;;45.40;30.08;;;;;;;;;;5022956;28;20041;-68
2022/01/15 03:51:32;;;;;;;39.58;27.98;;;;;;;;;;5019351;28;20048;-69
2022/01/15 03:53:57;;;;;;;40.13;28.52;;;;;;;;;;5026505;28;20033;-69
2022/01/15 03:56:23;;;;;;;35.85;27.83;;;;;;;;;;5029530;28;20033;-69
2022/01/15 03:58:49;;;;;;;37.65;26.65;;;;;;;;;;5025361;28;20044;-70
2022/01/15 04:01:14;;;;;;;45.00;28.13;;;;;;;;;;5013241;28;20416;-69
2022/01/15 04:03:40;;;;;;;38.65;27.88;;;;;;;;;;5018384;28;20033;-70
2022/01/15 04:06:06;;;;;;;37.17;28.08;;;;;;;;;;5023689;28;20049;-69
2022/01/15 04:08:31;;;;;;;36.88;27.15;;;;;;;;;;5023950;28;20537;-69
2022/01/15 04:10:57;;;;;;;38.92;27.05;;;;;;;;;;5024042;28;20045;-70
2022/01/15 04:13:23;;;;;;;37.53;27.17;;;;;;;;;;5026898;28;20036;-69
2022/01/15 04:15:52;;;;;;;37.22;27.30;;;;;;;;;;5029220;28;20044;-70
2022/01/15 04:18:19;;;;;;;41.95;29.15;;;;;;;;;;5025879;28;20095;-70
2022/01/15 04:20:45;;;;;;;36.83;28.25;;;;;;;;;;5021225;28;20030;-70
2022/01/15 04:23:10;;;;;;;42.20;29.33;;;;;;;;;;5021162;28;20063;-68
2022/01/15 04:25:36;;;;;;;43.38;28.83;;;;;;;;;;5029163;28;20542;-68
2022/01/15 04:28:07;;;;;;;35.85;28.17;;;;;;;;;;5029171;28;20429;-67
2022/01/15 04:30:34;;;;;;;44.65;28.67;;;;;;;;;;5014101;28;21187;-68
2022/01/15 04:33:00;;;;;;;32.45;26.63;;;;;;;;;;5032235;28;20123;-69
2022/01/15 04:35:26;;;;;;;36.45;27.48;;;;;;;;;;5030448;28;20064;-70
2022/01/15 04:38:00;;;;;;;38.70;28.70;;;;;;;;;;5011236;28;20048;-69
2022/01/15 04:40:26;;;;;;;36.92;27.90;;;;;;;;;;5023223;28;20528;-70
2022/01/15 04:42:51;;;;;;;34.67;26.50;;;;;;;;;;5029497;28;20122;-69
2022/01/15 04:45:17;;;;;;;41.17;28.52;;;;;;;;;;5014627;28;20116;-69
2022/01/15 04:47:43;;;;;;;36.92;26.13;;;;;;;;;;5029900;28;20084;-69
2022/01/15 04:50:12;;;;;;;36.70;25.70;;;;;;;;;;5009499;28;20030;-69
2022/01/15 04:52:38;;;;;;;37.55;27.15;;;;;;;;;;5021398;28;20040;-69
2022/01/15 04:55:06;;;;;;;39.15;27.50;;;;;;;;;;5031044;22;20088;-77
2022/01/15 04:57:32;;;;;;;33.53;25.40;;;;;;;;;;5011590;28;20574;-78
2022/01/15 04:59:58;;;;;;;34.22;25.80;;;;;;;;;;5042629;28;20080;-77
2022/01/15 05:02:24;;;;;;;39.28;26.08;;;;;;;;;;5037731;28;20068;-77
2022/01/15 05:04:49;;;;;;;36.17;25.98;;;;;;;;;;5049829;28;20618;-77
2022/01/15 05:07:15;;;;;;;37.45;24.75;;;;;;;;;;5048593;28;20033;-76
2022/01/15 05:09:41;;;;;;;38.92;26.65;;;;;;;;;;5055965;22;20045;-69
2022/01/15 05:12:22;;;;;;;32.72;25.70;;;;;;;;;;5040029;28;20048;-69
2022/01/15 05:14:48;;;;;;;25.90;22.65;;;;;;;;;;5043059;28;20032;-68
2022/01/15 05:17:13;;;;;;;33.35;25.08;;;;;;;;;;5061810;28;20044;-69
2022/01/15 05:19:39;;;;;;;42.38;25.40;;;;;;;;;;5045599;28;20056;-69
2022/01/15 05:22:05;;;;;;;33.10;25.38;;;;;;;;;;5056914;22;20047;-70
2022/01/15 05:24:31;;;;;;;36.72;27.52;;;;;;;;;;5024600;28;20049;-69
2022/01/15 05:26:57;;;;;;;30.30;24.65;;;;;;;;;;5022941;28;20040;-68
2022/01/15 05:29:23;;;;;;;37.03;25.95;;;;;;;;;;5026619;28;20046;-69
2022/01/15 05:31:49;;;;;;;31.83;25.17;;;;;;;;;;5029504;28;20290;-71
2022/01/15 05:34:14;;;;;;;33.85;24.27;;;;;;;;;;5047733;28;20033;-70
2022/01/15 05:36:40;;;;;;;41.30;27.00;;;;;;;;;;5045070;28;20110;-70
2022/01/15 05:39:07;;;;;;;34.65;26.15;;;;;;;;;;5045914;28;20066;-70
2022/01/15 05:41:33;;;;;;;34.58;24.50;;;;;;;;;;5049065;28;20119;-69
2022/01/15 05:44:01;;;;;;;33.50;25.25;;;;;;;;;;5049097;28;20349;-71
2022/01/15 05:46:31;;;;;;;36.27;24.90;;;;;;;;;;5043044;28;20044;-71
2022/01/15 05:48:57;;;;;;;33.08;24.05;;;;;;;;;;5040490;28;20507;-69
2022/01/15 05:51:23;;;;;;;33.95;23.98;;;;;;;;;;5044106;28;20515;-68
2022/01/15 05:53:49;;;;;;;39.03;25.05;;;;;;;;;;5046403;28;20115;-69
2022/01/15 05:56:15;;;;;;;31.08;25.48;;;;;;;;;;5043725;28;20132;-70
2022/01/15 05:58:40;;;;;;;35.97;24.95;;;;;;;;;;5025751;28;20116;-71
2022/01/15 06:01:06;;;;;;;32.78;26.48;;;;;;;;;;5036079;28;20041;-69
2022/01/15 06:03:31;;;;;;;31.92;24.90;;;;;;;;;;5035895;28;20367;-69
2022/01/15 06:05:57;;;;;;;37.20;24.08;;;;;;;;;;5037714;28;20404;-70
2022/01/15 06:08:23;;;;;;;29.20;23.17;;;;;;;;;;5043653;28;20072;-69
2022/01/15 06:10:48;;;;;;;34.55;25.27;;;;;;;;;;5042048;28;20484;-69
2022/01/15 06:13:14;;;;;;;30.55;22.88;;;;;;;;;;5042310;28;20029;-69
2022/01/15 06:15:39;;;;;;;36.58;25.88;;;;;;;;;;5034115;28;20216;-70
2022/01/15 06:18:05;;;;;;;35.50;25.42;;;;;;;;;;5014462;28;20041;-69
2022/01/15 06:20:31;;;;;;;30.40;23.63;;;;;;;;;;5041322;28;20049;-69
2022/01/15 06:22:56;;;;;;;36.15;24.63;;;;;;;;;;5034074;28;20037;-69
2022/01/15 06:25:22;;;;;;;34.47;24.80;;;;;;;;;;5045294;28;20098;-70
2022/01/15 06:27:48;;;;;;;36.70;24.55;;;;;;;;;;5045989;28;20529;-70
2022/01/15 06:30:13;;;;;;;32.25;25.88;;;;;;;;;;5040925;28;20549;-69
2022/01/15 06:32:39;;;;;;;31.45;24.13;;;;;;;;;;5044858;28;20033;-68
2022/01/15 06:35:07;;;;;;;29.35;22.33;;;;;;;;;;5047980;28;20025;-69
2022/01/15 06:37:32;;;;;;;32.83;24.80;;;;;;;;;;5047975;28;20699;-69
2022/01/15 06:39:58;;;;;;;34.50;26.13;;;;;;;;;;5043103;28;20111;-69
2022/01/15 06:42:24;;;;;;;32.42;24.15;;;;;;;;;;5042771;28;20323;-69
2022/01/15 06:44:49;;;;;;;38.15;27.90;;;;;;;;;;5043044;28;20033;-69
2022/01/15 06:47:15;;;;;;;31.40;24.33;;;;;;;;;;5047841;28;20041;-70
2022/01/15 06:49:41;;;;;;;34.30;24.60;;;;;;;;;;5042773;28;20519;-69
2022/01/15 06:52:06;;;;;;;36.55;25.23;;;;;;;;;;5032400;28;20111;-69
2022/01/15 06:54:32;;;;;;;34.05;23.98;;;;;;;;;;5044521;28;20037;-69
2022/01/15 06:56:58;;;;;;;42.20;26.52;;;;;;;;;;5045058;28;20037;-69
2022/01/15 06:59:23;;;;;;;36.10;27.08;;;;;;;;;;5041157;28;20447;-69
2022/01/15 07:01:49;;;;;;;45.13;28.13;;;;;;;;;;5045867;28;20041;-68
2022/01/15 07:04:15;;;;;;;47.67;29.98;;;;;;;;;;5045653;28;20029;-69
2022/01/15 07:06:40;;;;;;;50.80;32.60;;;;;;;;;;5041259;28;20032;-69
2022/01/15 07:09:06;;;;;;;40.88;28.65;;;;;;;;;;5038410;28;20045;-69
2022/01/15 07:11:31;;;;;;;36.97;28.33;;;;;;;;;;5045959;28;20041;-69
2022/01/15 07:13:57;;;;;;;36.97;28.05;;;;;;;;;;5038677;28;20071;-69
2022/01/15 07:16:23;;;;;;;38.42;27.30;;;;;;;;;;5043863;28;20029;-68
2022/01/15 07:18:48;;;;;;;39.28;27.17;;;;;;;;;;5044892;28;20113;-69
2022/01/15 07:21:14;;;;;;;27.73;23.60;;;;;;;;;;5039289;28;20033;-68
2022/01/15 07:23:39;;;;;;;36.13;26.30;;;;;;;;;;5040933;28;20303;-69
2022/01/15 07:26:05;;;;;;;32.47;25.83;;;;;;;;;;5046981;28;20128;-69
2022/01/15 07:28:31;;;;;;;39.42;27.98;;;;;;;;;;5044855;28;20439;-69
2022/01/15 07:31:00;;;;;;;33.70;23.67;;;;;;;;;;5038060;28;20037;-69
2022/01/15 07:33:25;;;;;;;33.58;25.25;;;;;;;;;;5037839;28;20127;-69
2022/01/15 07:35:52;;;;;;;38.72;25.30;;;;;;;;;;5046168;28;20476;-69
2022/01/15 07:38:20;;;;;;;27.58;22.25;;;;;;;;;;5044572;28;20480;-69
2022/01/15 07:40:46;;;;;;;33.28;23.95;;;;;;;;;;5036752;28;20515;-68
2022/01/15 07:43:12;;;;;;;39.40;25.50;;;;;;;;;;5038925;28;20479;-68
2022/01/15 07:45:37;;;;;;;34.63;24.58;;;;;;;;;;5041847;28;20040;-69
2022/01/15 07:48:03;;;;;;;30.42;22.98;;;;;;;;;;5040846;28;20408;-68
2022/01/15 07:50:29;;;;;;;26.05;22.75;;;;;;;;;;5040443;28;20300;-69
2022/01/15 07:52:57;;;;;;;32.83;22.70;;;;;;;;;;5034417;28;20033;-69
2022/01/15 07:55:24;;;;;;;32.53;22.55;;;;;;;;;;5042117;28;20498;-69
2022/01/15 07:57:49;;;;;;;35.08;23.98;;;;;;;;;;5045145;28;20494;-69
2022/01/15 08:00:16;;;;;;;28.25;23.08;;;;;;;;;;5036343;28;20029;-68
2022/01/15 08:02:42;;;;;;;27.52;23.27;;;;;;;;;;5029595;28;20041;-67
2022/01/15 08:05:10;;;;;;;40.25;30.05;;;;;;;;;;5043620;28;20051;-67
2022/01/15 08:07:35;;;;;;;33.03;24.17;;;;;;;;;;5037392;28;20036;-68
2022/01/15 08:10:03;;;;;;;27.20;22.52;;;;;;;;;;5043230;28;20045;-68
2022/01/15 08:12:29;;;;;;;36.90;25.45;;;;;;;;;;5046734;28;20033;-69
2022/01/15 08:14:56;;;;;;;37.15;25.17;;;;;;;;;;5048429;28;20044;-69
2022/01/15 08:17:22;;;;;;;41.63;27.73;;;;;;;;;;5044037;28;20040;-69
2022/01/15 08:19:47;;;;;;;46.85;27.52;;;;;;;;;;5040412;28;20033;-69
2022/01/15 08:22:13;;;;;;;49.90;28.77;;;;;;;;;;5040859;28;20037;-69
2022/01/15 08:24:39;;;;;;;44.15;29.25;;;;;;;;;;5048819;28;20576;-69
2022/01/15 08:27:05;;;;;;;45.92;28.20;;;;;;;;;;5047522;28;20041;-67
2022/01/15 08:29:31;;;;;;;57.33;32.67;;;;;;;;;;5048032;28;20496;-69
2022/01/15 08:31:56;;;;;;;42.75;29.30;;;;;;;;;;5042048;28;20102;-67
2022/01/15 08:34:22;;;;;;;41.92;28.58;;;;;;;;;;5050829;28;20410;-67
2022/01/15 08:36:49;;;;;;;39.42;27.65;;;;;;;;;;5044267;28;20028;-68
2022/01/15 08:39:15;;;;;;;58.22;34.05;;;;;;;;;;5047230;28;20047;-68
2022/01/15 08:41:43;;;;;;;41.88;28.35;;;;;;;;;;5047454;28;20033;-68
2022/01/15 08:44:09;;;;;;;36.67;26.63;;;;;;;;;;5050170;28;20037;-68
2022/01/15 08:46:35;;;;;;;27.40;23.00;;;;;;;;;;5044229;28;20039;-68
2022/01/15 08:49:00;;;;;;;30.85;22.95;;;;;;;;;;5030561;28;20196;-70
2022/01/15 08:51:26;;;;;;;24.40;21.85;;;;;;;;;;5040511;28;20040;-68
2022/01/15 08:53:51;;;;;;;27.02;22.80;;;;;;;;;;5043813;28;20029;-70
2022/01/15 08:56:17;;;;;;;30.42;23.50;;;;;;;;;;5046651;28;20025;-68
2022/01/15 08:58:43;;;;;;;28.73;23.45;;;;;;;;;;5043591;28;20086;-68
2022/01/15 09:01:13;;;;;;;25.27;22.25;;;;;;;;;;5046057;28;20041;-68
2022/01/15 09:03:40;;;;;;;35.85;26.58;;;;;;;;;;5047638;28;20036;-68
2022/01/15 09:06:06;;;;;;;24.08;21.48;;;;;;;;;;5044059;28;20037;-70
2022/01/15 09:08:32;;;;;;;27.23;24.33;;;;;;;;;;5042830;28;20034;-70
2022/01/15 09:10:58;;;;;;;25.80;22.60;;;;;;;;;;5049901;28;20097;-70
2022/01/15 09:13:24;;;;;;;28.30;23.75;;;;;;;;;;5046006;28;20028;-70
2022/01/15 09:15:52;;;;;;;24.67;22.00;;;;;;;;;;5037447;28;20033;-70
2022/01/15 09:18:19;;;;;;;26.23;21.30;;;;;;;;;;5043713;28;20391;-69
2022/01/15 09:20:46;;;;;;;24.23;21.63;;;;;;;;;;5036562;28;20041;-69
2022/01/15 09:23:12;;;;;;;25.02;22.45;;;;;;;;;;5040644;28;20114;-70
2022/01/15 09:25:38;;;;;;;25.25;22.33;;;;;;;;;;5049732;28;20056;-70
2022/01/15 09:30:48;;;;;;;24.83;22.17;;;;;;;;;;5045902;28;20048;-70
2022/01/15 09:33:14;;;;;;;26.75;22.10;;;;;;;;;;5060402;28;20112;-69
2022/01/15 09:35:40;;;;;;;25.00;22.35;;;;;;;;;;5044153;28;20028;-69
2022/01/15 09:38:06;;;;;;;24.92;22.42;;;;;;;;;;5047713;28;20083;-69
2022/01/15 09:40:32;;;;;;;26.55;22.08;;;;;;;;;;5026576;28;20036;-69
2022/01/15 09:42:58;;;;;;;29.30;22.35;;;;;;;;;;5040737;28;20033;-70
2022/01/15 09:45:24;;;;;;;24.75;22.00;;;;;;;;;;5049110;28;20491;-69
2022/01/15 09:48:01;;;;;;;24.65;22.13;;;;;;;;;;5041585;28;20506;-69
2022/01/15 09:50:29;;;;;;;25.85;22.77;;;;;;;;;;5045747;28;20036;-69
2022/01/15 09:52:55;;;;;;;24.48;21.88;;;;;;;;;;5042120;28;20580;-69
2022/01/15 09:55:22;;;;;;;24.88;22.27;;;;;;;;;;5039113;28;20132;-70
2022/01/15 09:57:49;;;;;;;27.17;21.80;;;;;;;;;;5037127;28;20030;-70
2022/01/15 10:00:17;;;;;;;25.48;22.73;;;;;;;;;;5047181;28;20039;-69
2022/01/15 10:02:45;;;;;;;25.23;22.33;;;;;;;;;;5047395;28;20032;-70
2022/01/15 10:05:12;;;;;;;23.48;20.98;;;;;;;;;;5041584;28;20033;-69
2022/01/15 10:07:52;;;;;;;28.75;22.15;;;;;;;;;;5039373;28;20244;-69
2022/01/15 10:10:20;;;;;;;24.52;22.00;;;;;;;;;;5044202;28;20041;-69
2022/01/15 10:12:46;;;;;;;25.27;22.67;;;;;;;;;;5044955;28;20037;-69
2022/01/15 10:15:14;;;;;;;30.05;24.17;;;;;;;;;;5043776;28;20558;-69
2022/01/15 10:17:40;;;;;;;26.75;23.80;;;;;;;;;;5038725;28;20060;-70
2022/01/15 10:20:25;;;;;;;25.85;23.25;;;;;;;;;;5042961;28;20043;-71
2022/01/15 10:22:52;;;;;;;25.60;22.60;;;;;;;;;;5039415;28;20028;-71
2022/01/15 10:25:21;;;;;;;24.17;21.70;;;;;;;;;;5042117;28;20122;-70
2022/01/15 10:27:49;;;;;;;;;;;;;;;;;;5048922;28;20035;-71
2022/01/15 10:30:21;;;;;;;25.00;21.73;;;;;;;;;;5045051;28;19921;-71
2022/01/15 10:33:07;;;;;;;24.92;22.30;;;;;;;;;;5043931;28;20040;-71
2022/01/15 10:35:40;;;;;;;24.48;21.30;;;;;;;;;;5040373;28;20051;-71
2022/01/15 10:38:14;;;;;;;25.73;22.58;;;;;;;;;;5042106;28;20029;-70
2022/01/15 10:40:53;;;;;;;23.52;21.02;;;;;;;;;;5039124;28;20265;-71
2022/01/15 10:43:20;;;;;;;23.95;21.42;;;;;;;;;;5039422;28;20037;-71
2022/01/15 10:45:52;;;;;;;23.70;21.20;;;;;;;;;;5048009;28;20032;-71
2022/01/15 10:48:31;;;;;;;25.15;21.70;;;;;;;;;;5044522;28;20037;-71
2022/01/15 10:50:58;;;;;;;25.35;22.30;;;;;;;;;;5045563;28;20037;-70
2022/01/15 10:53:41;;;;;;;24.02;21.70;;;;;;;;;;5037723;28;20051;-70
2022/01/15 10:56:09;;;;;;;26.70;23.73;;;;;;;;;;5036204;28;20148;-71
2022/01/15 10:58:35;;;;;;;28.42;23.60;;;;;;;;;;5039960;28;20040;-70
2022/01/15 11:01:01;;;;;;;27.20;23.17;;;;;;;;;;5046348;28;20036;-71
2022/01/15 11:03:43;;;;;;;25.63;22.42;;;;;;;;;;5043986;28;20037;-71
2022/01/15 11:06:09;;;;;;;25.55;22.58;;;;;;;;;;5042538;28;20039;-72
2022/01/15 11:08:37;;;;;;;27.05;23.92;;;;;;;;;;5049104;28;20325;-71
2022/01/15 11:11:05;;;;;;;27.40;24.50;;;;;;;;;;5051020;28;20423;-70
2022/01/15 11:13:33;;;;;;;30.10;26.05;;;;;;;;;;5042157;28;20067;-70
2022/01/15 11:16:08;;;;;;;26.83;24.02;;;;;;;;;;5041390;28;20124;-70
2022/01/15 11:18:37;;;;;;;24.77;22.10;;;;;;;;;;5045000;28;20028;-71
2022/01/15 11:21:08;;;;;;;26.90;23.33;;;;;;;;;;5038675;28;22596;-70
2022/01/15 11:23:36;;;;;;;24.92;22.33;;;;;;;;;;5033199;28;20295;-70
2022/01/15 11:26:07;;;;;;;26.70;23.48;;;;;;;;;;5044428;28;20045;-71
2022/01/15 11:28:33;;;;;;;42.45;34.83;;;;;;;;;;5048110;28;20130;-70
2022/01/15 11:31:02;;;;;;;46.15;34.30;;;;;;;;;;5036947;28;20047;-70
2022/01/15 11:33:31;;;;;;;27.23;22.55;;;;;;;;;;5042306;28;20037;-70
2022/01/15 11:35:57;;;;;;;26.60;23.80;;;;;;;;;;5044224;28;20412;-70
2022/01/15 11:38:41;;;;;;;31.10;25.38;;;;;;;;;;5047453;28;20045;-71
2022/01/15 11:41:25;;;;;;;27.27;24.27;;;;;;;;;;5031705;28;20044;-69
2022/01/15 11:43:50;;;;;;;32.08;24.85;;;;;;;;;;5031415;28;20090;-71
2022/01/15 11:46:26;;;;;;;25.70;23.05;;;;;;;;;;5045927;28;20029;-70
2022/01/15 11:49:24;;;;;;;28.23;24.15;;;;;;;;;;5035817;28;20140;-70
2022/01/15 11:51:50;;;;;;;27.70;24.10;;;;;;;;;;5039364;28;20478;-70
2022/01/15 11:54:16;;;;;;;29.30;23.80;;;;;;;;;;5041207;28;20079;-71
2022/01/15 11:56:42;;;;;;;27.30;23.80;;;;;;;;;;5040963;28;20312;-70
2022/01/15 11:59:26;;;;;;;31.30;27.25;;;;;;;;;;5043998;28;20110;-71
2022/01/15 12:02:02;;;;;;;28.08;24.45;;;;;;;;;;5044296;28;20124;-70
2022/01/15 12:04:29;;;;;;;30.63;27.45;;;;;;;;;;5044644;28;20084;-70
2022/01/15 12:07:01;;;;;;;31.55;28.23;;;;;;;;;;5041322;28;20037;-71
2022/01/15 12:09:35;;;;;;;30.75;26.02;;;;;;;;;;5049303;28;20036;-70
2022/01/15 12:12:03;;;;;;;27.15;23.98;;;;;;;;;;5049195;28;20355;-71
2022/01/15 12:14:50;;;;;;;29.10;24.75;;;;;;;;;;5044872;28;20103;-70
2022/01/15 12:17:39;;;;;;;29.27;26.27;;;;;;;;;;5038097;28;20029;-70
2022/01/15 12:20:31;;;;;;;30.10;25.40;;;;;;;;;;5047755;28;20040;-70
2022/01/15 12:23:21;;;;;;;27.40;24.58;;;;;;;;;;5042931;28;20488;-70
2022/01/15 12:25:49;;;;;;;28.15;24.83;;;;;;;;;;5022860;28;20124;-70
2022/01/15 12:28:16;;;;;;;28.15;24.80;;;;;;;;;;5040067;28;20558;-71
2022/01/15 12:30:48;;;;;;;27.02;24.15;;;;;;;;;;5044708;28;20041;-69
2022/01/15 12:33:15;;;;;;;28.75;25.42;;;;;;;;;;5046939;28;20040;-70
2022/01/15 12:35:44;;;;;;;30.50;26.38;;;;;;;;;;5039054;28;20034;-70
2022/01/15 12:38:16;;;;;;;31.55;26.85;;;;;;;;;;5046944;28;20383;-69
2022/01/15 12:40:53;;;;;;;33.60;27.13;;;;;;;;;;5047877;28;20036;-69
2022/01/15 12:43:23;;;;;;;30.98;27.35;;;;;;;;;;5048316;28;20075;-70
2022/01/15 12:45:52;;;;;;;33.90;26.90;;;;;;;;;;5043908;28;20056;-69
2022/01/15 12:48:21;;;;;;;34.17;26.98;;;;;;;;;;5039629;28;21708;-70
2022/01/15 12:50:55;;;;;;;33.80;27.08;;;;;;;;;;5045336;28;20047;-69
2022/01/15 12:53:27;;;;;;;35.38;28.10;;;;;;;;;;5036561;28;20047;-68
2022/01/15 12:55:53;;;;;;;34.40;28.88;;;;;;;;;;5043194;28;20040;-71
2022/01/15 12:58:22;;;;;;;36.80;28.70;;;;;;;;;;5047144;28;20041;-69
2022/01/15 13:00:49;;;;;;;37.75;28.52;;;;;;;;;;5048467;28;20498;-70
2022/01/15 13:03:19;;;;;;;32.78;27.92;;;;;;;;;;5040459;28;20124;-69
2022/01/15 13:05:49;;;;;;;31.05;27.83;;;;;;;;;;5035937;28;20080;-70
2022/01/15 13:08:16;;;;;;;32.78;28.30;;;;;;;;;;5046631;28;20036;-70
2022/01/15 13:10:47;;;;;;;33.47;27.67;;;;;;;;;;5046322;28;20121;-71
2022/01/15 13:13:24;;;;;;;33.65;28.67;;;;;;;;;;5036604;28;20037;-70
2022/01/15 13:16:01;;;;;;;36.97;27.98;;;;;;;;;;5042066;28;20041;-70
2022/01/15 13:18:29;;;;;;;33.08;25.92;;;;;;;;;;5038094;28;20033;-70
2022/01/15 13:20:57;;;;;;;31.88;27.33;;;;;;;;;;5035895;28;20112;-72
2022/01/15 13:23:26;;;;;;;31.35;26.77;;;;;;;;;;5042534;28;20037;-69
2022/01/15 13:25:52;;;;;;;;;;;;;;;;;;5037645;28;20044;-69
2022/01/15 13:28:18;;;;;;;37.05;29.20;;;;;;;;;;5037520;28;19919;-69
2022/01/15 13:30:49;;;;;;;31.67;27.98;;;;;;;;;;5047169;28;20041;-71
2022/01/15 13:33:16;;;;;;;36.72;28.70;;;;;;;;;;5043381;28;20040;-70
2022/01/15 13:35:43;;;;;;;34.67;28.70;;;;;;;;;;5042453;28;20039;-69
2022/01/15 13:38:12;;;;;;;40.60;29.23;;;;;;;;;;5047723;28;20240;-70
2022/01/15 13:40:40;;;;;;;37.17;29.95;;;;;;;;;;5041877;28;20060;-70
2022/01/15 13:43:09;;;;;;;38.42;28.75;;;;;;;;;;5045193;28;20040;-70
2022/01/15 13:45:38;;;;;;;37.85;29.70;;;;;;;;;;5042801;28;20037;-70
2022/01/15 13:48:24;;;;;;;36.72;28.85;;;;;;;;;;5043720;28;20067;-70
2022/01/15 13:53:44;;;;;;;36.45;30.20;;;;;;;;;;5042560;28;20037;-69
2022/01/15 13:56:21;;;;;;;36.22;31.15;;;;;;;;;;5046211;28;20036;-70
2022/01/15 13:58:48;;;;;;;38.50;29.58;;;;;;;;;;5042842;28;20495;-69
2022/01/15 14:01:35;;;;;;;38.90;29.90;;;;;;;;;;5039252;28;20068;-70
2022/01/15 14:04:19;;;;;;;39.53;31.10;;;;;;;;;;5044947;28;20484;-70
2022/01/15 14:06:45;;;;;;;36.97;28.60;;;;;;;;;;5043991;28;20056;-70
2022/01/15 14:09:15;;;;;;;41.03;31.13;;;;;;;;;;5035419;28;20037;-70
2022/01/15 14:12:07;;;;;;;36.58;29.65;;;;;;;;;;5046720;28;20499;-69
2022/01/15 14:14:53;;;;;;;39.70;31.20;;;;;;;;;;5045046;28;20037;-69
2022/01/15 14:17:23;;;;;;;44.13;30.85;;;;;;;;;;5036652;28;20029;-70
2022/01/15 14:22:44;;;;;;;37.00;30.30;;;;;;;;;;5040806;28;20144;-69
2022/01/15 14:25:23;;;;;;;39.88;30.25;;;;;;;;;;5036611;28;20124;-69
2022/01/15 14:28:04;;;;;;;41.30;32.00;;;;;;;;;;5038014;28;20369;-69
2022/01/15 14:30:31;;;;;;;37.80;30.80;;;;;;;;;;5045204;28;20091;-69
2022/01/15 14:32:58;;;;;;;38.08;31.13;;;;;;;;;;5044664;28;20116;-71
2022/01/15 14:35:25;;;;;;;38.28;31.63;;;;;;;;;;5034713;28;20068;-69
2022/01/15 14:37:51;;;;;;;44.58;31.83;;;;;;;;;;5030380;28;20115;-69
2022/01/15 14:40:17;;;;;;;43.85;34.40;;;;;;;;;;5046119;28;20101;-70
2022/01/15 14:42:44;;;;;;;44.67;36.53;;;;;;;;;;5046832;28;20623;-70
2022/01/15 14:45:10;;;;;;;41.78;31.90;;;;;;;;;;5035089;28;20116;-71
2022/01/15 14:47:36;;;;;;;41.88;31.05;;;;;;;;;;5042129;28;20127;-71
2022/01/15 14:50:03;;;;;;;49.20;34.83;;;;;;;;;;5034465;28;20037;-70
2022/01/15 14:52:28;;;;;;;43.65;33.08;;;;;;;;;;5035102;28;20040;-71
2022/01/15 14:54:54;;;;;;;53.15;34.75;;;;;;;;;;5036325;28;20043;-72
2022/01/15 14:57:20;;;;;;;47.88;34.75;;;;;;;;;;5045432;28;20395;-71